sensor_id;sensor_type;location;lat;lon;timestamp;temperature;humidity
33207;DHT22;19565;46.602;11.534;2022-08-19T00:00:42;20.00;99.90
33207;DHT22;19565;46.602;11.534;2022-08-19T00:03:10;20.00;99.90
33207;DHT22;19565;46.602;11.534;2022-08-19T00:05:38;20.00;99.90
33207;DHT22;19565;46.602;11.534;2022-08-19T00:08:07;20.00;99.90
33207;DHT22;19565;46.602;11.534;2022-08-19T00:10:36;20.00;99.90
33207;DHT22;19565;46.602;11.534;2022-08-19T00:13:04;19.90;99.90
33207;DHT22;19565;46.602;11.534;2022-08-19T00:15:33;19.90;99.90
33207;DHT22;19565;46.602;11.534;2022-08-19T00:18:01;19.80;99.90
33207;DHT22;19565;46.602;11.534;2022-08-19T00:20:29;19.80;99.90
33207;DHT22;19565;46.602;11.534;2022-08-19T00:22:57;19.70;99.90
33207;DHT22;19565;46.602;11.534;2022-08-19T00:25:27;19.70;99.90
33207;DHT22;19565;46.602;11.534;2022-08-19T00:27:58;19.80;99.90
33207;DHT22;19565;46.602;11.534;2022-08-19T00:30:26;19.90;99.90
33207;DHT22;19565;46.602;11.534;2022-08-19T00:32:55;19.90;99.90
33207;DHT22;19565;46.602;11.534;2022-08-19T00:35:23;19.90;99.90
33207;DHT22;19565;46.602;11.534;2022-08-19T00:37:51;20.00;99.90
33207;DHT22;19565;46.602;11.534;2022-08-19T00:40:22;20.00;99.90
33207;DHT22;19565;46.602;11.534;2022-08-19T00:42:52;20.00;99.90
33207;DHT22;19565;46.602;11.534;2022-08-19T00:45:24;20.10;99.90
33207;DHT22;19565;46.602;11.534;2022-08-19T00:47:52;20.10;99.90
33207;DHT22;19565;46.602;11.534;2022-08-19T00:50:21;20.10;99.90
33207;DHT22;19565;46.602;11.534;2022-08-19T00:52:50;20.00;99.90
33207;DHT22;19565;46.602;11.534;2022-08-19T00:55:21;20.00;99.90
33207;DHT22;19565;46.602;11.534;2022-08-19T00:57:53;20.00;99.90
33207;DHT22;19565;46.602;11.534;2022-08-19T01:00:25;20.00;99.90
33207;DHT22;19565;46.602;11.534;2022-08-19T01:02:54;20.10;99.90
33207;DHT22;19565;46.602;11.534;2022-08-19T01:05:24;20.10;99.90
33207;DHT22;19565;46.602;11.534;2022-08-19T01:07:54;20.10;99.90
33207;DHT22;19565;46.602;11.534;2022-08-19T01:10:26;20.10;99.90
33207;DHT22;19565;46.602;11.534;2022-08-19T01:13:01;20.10;99.90
33207;DHT22;19565;46.602;11.534;2022-08-19T01:15:34;19.90;99.90
33207;DHT22;19565;46.602;11.534;2022-08-19T01:18:07;19.50;99.90
33207;DHT22;19565;46.602;11.534;2022-08-19T01:20:37;19.50;99.90
33207;DHT22;19565;46.602;11.534;2022-08-19T01:23:08;19.60;99.90
33207;DHT22;19565;46.602;11.534;2022-08-19T01:25:43;19.70;99.90
33207;DHT22;19565;46.602;11.534;2022-08-19T01:28:19;19.80;99.90
33207;DHT22;19565;46.602;11.534;2022-08-19T01:31:07;19.90;99.90
33207;DHT22;19565;46.602;11.534;2022-08-19T01:33:55;20.00;99.90
33207;DHT22;19565;46.602;11.534;2022-08-19T01:36:27;20.00;99.90
33207;DHT22;19565;46.602;11.534;2022-08-19T01:38:57;20.00;99.90
33207;DHT22;19565;46.602;11.534;2022-08-19T01:41:26;20.00;99.90
33207;DHT22;19565;46.602;11.534;2022-08-19T01:43:55;20.00;99.90
33207;DHT22;19565;46.602;11.534;2022-08-19T01:46:43;19.90;99.90
33207;DHT22;19565;46.602;11.534;2022-08-19T01:49:12;19.80;99.90
33207;DHT22;19565;46.602;11.534;2022-08-19T01:51:40;19.80;99.90
33207;DHT22;19565;46.602;11.534;2022-08-19T01:54:12;19.70;99.90
33207;DHT22;19565;46.602;11.534;2022-08-19T01:56:57;19.60;99.90
33207;DHT22;19565;46.602;11.534;2022-08-19T01:59:26;19.50;99.90
33207;DHT22;19565;46.602;11.534;2022-08-19T02:01:55;19.40;99.90
33207;DHT22;19565;46.602;11.534;2022-08-19T02:04:24;19.40;99.90
33207;DHT22;19565;46.602;11.534;2022-08-19T02:06:52;19.20;99.90
33207;DHT22;19565;46.602;11.534;2022-08-19T02:09:22;19.10;99.90
33207;DHT22;19565;46.602;11.534;2022-08-19T02:11:50;19.10;99.90
33207;DHT22;19565;46.602;11.534;2022-08-19T02:14:18;19.10;99.90
33207;DHT22;19565;46.602;11.534;2022-08-19T02:16:46;19.10;99.90
33207;DHT22;19565;46.602;11.534;2022-08-19T02:19:14;19.10;99.90
33207;DHT22;19565;46.602;11.534;2022-08-19T02:21:42;19.20;99.90
33207;DHT22;19565;46.602;11.534;2022-08-19T02:24:11;19.10;99.90
33207;DHT22;19565;46.602;11.534;2022-08-19T02:26:41;19.20;99.90
33207;DHT22;19565;46.602;11.534;2022-08-19T02:29:09;19.00;99.90
33207;DHT22;19565;46.602;11.534;2022-08-19T02:31:37;18.90;99.90
33207;DHT22;19565;46.602;11.534;2022-08-19T02:34:06;19.00;99.90
33207;DHT22;19565;46.602;11.534;2022-08-19T02:36:34;18.90;99.90
33207;DHT22;19565;46.602;11.534;2022-08-19T02:39:08;18.90;99.90
33207;DHT22;19565;46.602;11.534;2022-08-19T02:41:35;18.80;99.90
33207;DHT22;19565;46.602;11.534;2022-08-19T02:44:05;18.80;99.90
33207;DHT22;19565;46.602;11.534;2022-08-19T02:46:53;18.80;99.90
33207;DHT22;19565;46.602;11.534;2022-08-19T02:49:22;18.90;99.90
33207;DHT22;19565;46.602;11.534;2022-08-19T02:51:50;18.80;99.90
33207;DHT22;19565;46.602;11.534;2022-08-19T02:54:18;18.80;99.90
33207;DHT22;19565;46.602;11.534;2022-08-19T02:56:46;18.80;99.90
33207;DHT22;19565;46.602;11.534;2022-08-19T02:59:16;18.80;99.90
33207;DHT22;19565;46.602;11.534;2022-08-19T03:01:48;18.80;99.90
33207;DHT22;19565;46.602;11.534;2022-08-19T03:04:17;18.80;99.90
33207;DHT22;19565;46.602;11.534;2022-08-19T03:06:47;18.80;99.90
33207;DHT22;19565;46.602;11.534;2022-08-19T03:09:16;18.80;99.90
33207;DHT22;19565;46.602;11.534;2022-08-19T03:11:47;18.70;99.90
33207;DHT22;19565;46.602;11.534;2022-08-19T03:14:20;18.70;99.90
33207;DHT22;19565;46.602;11.534;2022-08-19T03:16:50;18.60;99.90
33207;DHT22;19565;46.602;11.534;2022-08-19T03:19:19;18.50;99.90
33207;DHT22;19565;46.602;11.534;2022-08-19T03:21:48;18.60;99.90
33207;DHT22;19565;46.602;11.534;2022-08-19T03:24:17;18.60;99.90
33207;DHT22;19565;46.602;11.534;2022-08-19T03:26:47;18.60;99.90
33207;DHT22;19565;46.602;11.534;2022-08-19T03:29:16;18.60;99.90
33207;DHT22;19565;46.602;11.534;2022-08-19T03:31:59;18.70;99.90
33207;DHT22;19565;46.602;11.534;2022-08-19T03:34:32;18.80;99.90
33207;DHT22;19565;46.602;11.534;2022-08-19T03:37:05;18.80;99.90
33207;DHT22;19565;46.602;11.534;2022-08-19T03:39:35;18.90;99.90
33207;DHT22;19565;46.602;11.534;2022-08-19T03:42:04;19.00;99.90
33207;DHT22;19565;46.602;11.534;2022-08-19T03:44:52;19.00;99.90
33207;DHT22;19565;46.602;11.534;2022-08-19T03:47:22;19.00;99.90
33207;DHT22;19565;46.602;11.534;2022-08-19T03:49:50;19.10;99.90
33207;DHT22;19565;46.602;11.534;2022-08-19T03:52:20;19.20;99.90
33207;DHT22;19565;46.602;11.534;2022-08-19T03:54:48;19.30;99.90
33207;DHT22;19565;46.602;11.534;2022-08-19T03:57:16;19.40;99.90
33207;DHT22;19565;46.602;11.534;2022-08-19T03:59:44;19.40;99.90
33207;DHT22;19565;46.602;11.534;2022-08-19T04:02:12;19.50;99.90
33207;DHT22;19565;46.602;11.534;2022-08-19T04:04:43;19.60;99.90
33207;DHT22;19565;46.602;11.534;2022-08-19T04:07:13;19.60;99.90
33207;DHT22;19565;46.602;11.534;2022-08-19T04:09:42;19.70;99.90
33207;DHT22;19565;46.602;11.534;2022-08-19T04:12:11;19.70;99.90
33207;DHT22;19565;46.602;11.534;2022-08-19T04:14:39;19.70;99.90
33207;DHT22;19565;46.602;11.534;2022-08-19T04:17:08;19.70;99.90
33207;DHT22;19565;46.602;11.534;2022-08-19T04:19:36;19.60;99.90
33207;DHT22;19565;46.602;11.534;2022-08-19T04:22:06;19.50;99.90
33207;DHT22;19565;46.602;11.534;2022-08-19T04:24:35;19.50;99.90
33207;DHT22;19565;46.602;11.534;2022-08-19T04:27:04;19.50;99.90
33207;DHT22;19565;46.602;11.534;2022-08-19T04:29:33;19.50;99.90
33207;DHT22;19565;46.602;11.534;2022-08-19T04:32:02;19.60;99.90
33207;DHT22;19565;46.602;11.534;2022-08-19T04:34:36;19.60;99.90
33207;DHT22;19565;46.602;11.534;2022-08-19T04:37:27;19.70;99.90
33207;DHT22;19565;46.602;11.534;2022-08-19T04:40:03;19.70;99.90
33207;DHT22;19565;46.602;11.534;2022-08-19T04:42:57;19.60;99.90
33207;DHT22;19565;46.602;11.534;2022-08-19T04:45:25;19.60;99.90
33207;DHT22;19565;46.602;11.534;2022-08-19T04:48:02;19.60;99.90
33207;DHT22;19565;46.602;11.534;2022-08-19T04:50:51;19.60;99.90
33207;DHT22;19565;46.602;11.534;2022-08-19T04:53:26;19.60;99.90
33207;DHT22;19565;46.602;11.534;2022-08-19T04:56:04;19.60;99.90
33207;DHT22;19565;46.602;11.534;2022-08-19T04:58:34;19.60;99.90
33207;DHT22;19565;46.602;11.534;2022-08-19T05:01:02;19.60;99.90
33207;DHT22;19565;46.602;11.534;2022-08-19T05:03:31;19.60;99.90
33207;DHT22;19565;46.602;11.534;2022-08-19T05:06:04;19.70;99.90
33207;DHT22;19565;46.602;11.534;2022-08-19T05:08:35;19.70;99.90
33207;DHT22;19565;46.602;11.534;2022-08-19T05:11:09;19.70;99.90
33207;DHT22;19565;46.602;11.534;2022-08-19T05:13:40;19.70;99.90
33207;DHT22;19565;46.602;11.534;2022-08-19T05:16:09;19.70;99.90
33207;DHT22;19565;46.602;11.534;2022-08-19T05:18:38;19.80;99.90
33207;DHT22;19565;46.602;11.534;2022-08-19T05:21:25;19.80;99.90
33207;DHT22;19565;46.602;11.534;2022-08-19T05:24:13;19.80;99.90
33207;DHT22;19565;46.602;11.534;2022-08-19T05:26:43;19.70;99.90
33207;DHT22;19565;46.602;11.534;2022-08-19T05:29:13;19.70;99.90
33207;DHT22;19565;46.602;11.534;2022-08-19T05:31:42;19.70;99.90
33207;DHT22;19565;46.602;11.534;2022-08-19T05:34:11;19.70;99.90
33207;DHT22;19565;46.602;11.534;2022-08-19T05:36:46;19.70;99.90
33207;DHT22;19565;46.602;11.534;2022-08-19T05:39:19;19.70;99.90
33207;DHT22;19565;46.602;11.534;2022-08-19T05:41:49;19.70;99.90
33207;DHT22;19565;46.602;11.534;2022-08-19T05:44:17;19.70;99.90
33207;DHT22;19565;46.602;11.534;2022-08-19T05:46:47;19.70;99.90
33207;DHT22;19565;46.602;11.534;2022-08-19T05:49:16;19.70;99.90
33207;DHT22;19565;46.602;11.534;2022-08-19T05:51:44;19.70;99.90
33207;DHT22;19565;46.602;11.534;2022-08-19T05:54:12;19.70;99.90
33207;DHT22;19565;46.602;11.534;2022-08-19T05:56:43;19.80;99.90
33207;DHT22;19565;46.602;11.534;2022-08-19T05:59:14;19.80;99.90
33207;DHT22;19565;46.602;11.534;2022-08-19T06:01:47;19.90;99.90
33207;DHT22;19565;46.602;11.534;2022-08-19T06:04:18;19.90;99.90
33207;DHT22;19565;46.602;11.534;2022-08-19T06:06:51;19.90;99.90
33207;DHT22;19565;46.602;11.534;2022-08-19T06:09:19;19.90;99.90
33207;DHT22;19565;46.602;11.534;2022-08-19T06:11:50;20.00;99.90
33207;DHT22;19565;46.602;11.534;2022-08-19T06:14:24;20.00;99.90
33207;DHT22;19565;46.602;11.534;2022-08-19T06:16:54;20.10;99.90
33207;DHT22;19565;46.602;11.534;2022-08-19T06:19:22;19.90;99.90
33207;DHT22;19565;46.602;11.534;2022-08-19T06:21:52;19.70;99.90
33207;DHT22;19565;46.602;11.534;2022-08-19T06:24:22;19.50;99.90
33207;DHT22;19565;46.602;11.534;2022-08-19T06:26:54;19.40;99.90
33207;DHT22;19565;46.602;11.534;2022-08-19T06:29:28;19.50;99.90
33207;DHT22;19565;46.602;11.534;2022-08-19T06:32:00;19.50;99.90
33207;DHT22;19565;46.602;11.534;2022-08-19T06:34:31;19.60;99.90
33207;DHT22;19565;46.602;11.534;2022-08-19T06:37:00;19.60;99.90
33207;DHT22;19565;46.602;11.534;2022-08-19T06:39:39;19.50;99.90
33207;DHT22;19565;46.602;11.534;2022-08-19T06:42:09;19.50;99.90
33207;DHT22;19565;46.602;11.534;2022-08-19T06:44:41;19.60;99.90
33207;DHT22;19565;46.602;11.534;2022-08-19T06:47:16;19.70;99.90
33207;DHT22;19565;46.602;11.534;2022-08-19T06:49:53;19.60;99.90
33207;DHT22;19565;46.602;11.534;2022-08-19T06:52:28;19.60;99.90
33207;DHT22;19565;46.602;11.534;2022-08-19T06:55:00;19.60;99.90
33207;DHT22;19565;46.602;11.534;2022-08-19T06:57:34;19.70;99.90
33207;DHT22;19565;46.602;11.534;2022-08-19T07:00:03;19.80;99.90
33207;DHT22;19565;46.602;11.534;2022-08-19T07:02:38;19.80;99.90
33207;DHT22;19565;46.602;11.534;2022-08-19T07:05:08;19.90;99.90
33207;DHT22;19565;46.602;11.534;2022-08-19T07:07:36;19.90;99.90
33207;DHT22;19565;46.602;11.534;2022-08-19T07:10:09;20.00;99.90
33207;DHT22;19565;46.602;11.534;2022-08-19T07:12:41;20.10;99.90
33207;DHT22;19565;46.602;11.534;2022-08-19T07:15:09;20.20;99.90
33207;DHT22;19565;46.602;11.534;2022-08-19T07:17:38;20.20;99.90
33207;DHT22;19565;46.602;11.534;2022-08-19T07:20:08;20.20;99.90
33207;DHT22;19565;46.602;11.534;2022-08-19T07:22:37;20.20;99.90
33207;DHT22;19565;46.602;11.534;2022-08-19T07:25:07;20.30;99.90
33207;DHT22;19565;46.602;11.534;2022-08-19T07:27:36;20.30;99.90
33207;DHT22;19565;46.602;11.534;2022-08-19T07:30:08;20.40;99.90
33207;DHT22;19565;46.602;11.534;2022-08-19T07:32:38;20.50;99.90
33207;DHT22;19565;46.602;11.534;2022-08-19T07:35:07;20.60;99.90
33207;DHT22;19565;46.602;11.534;2022-08-19T07:37:36;20.60;99.90
33207;DHT22;19565;46.602;11.534;2022-08-19T07:40:06;20.70;99.90
33207;DHT22;19565;46.602;11.534;2022-08-19T07:42:35;20.80;99.90
33207;DHT22;19565;46.602;11.534;2022-08-19T07:45:04;20.80;99.90
33207;DHT22;19565;46.602;11.534;2022-08-19T07:47:34;20.90;99.90
33207;DHT22;19565;46.602;11.534;2022-08-19T07:50:22;21.00;99.90
33207;DHT22;19565;46.602;11.534;2022-08-19T07:52:50;21.00;99.90
33207;DHT22;19565;46.602;11.534;2022-08-19T07:55:22;21.00;99.90
33207;DHT22;19565;46.602;11.534;2022-08-19T07:58:09;21.10;99.90
33207;DHT22;19565;46.602;11.534;2022-08-19T08:00:37;21.10;99.90
33207;DHT22;19565;46.602;11.534;2022-08-19T08:03:07;21.10;99.90
33207;DHT22;19565;46.602;11.534;2022-08-19T08:05:36;21.10;99.90
33207;DHT22;19565;46.602;11.534;2022-08-19T08:08:22;21.20;99.90
33207;DHT22;19565;46.602;11.534;2022-08-19T08:11:15;21.20;99.90
33207;DHT22;19565;46.602;11.534;2022-08-19T08:13:46;21.30;99.90
33207;DHT22;19565;46.602;11.534;2022-08-19T08:16:30;21.40;99.90
33207;DHT22;19565;46.602;11.534;2022-08-19T08:19:03;21.40;99.90
33207;DHT22;19565;46.602;11.534;2022-08-19T08:21:40;21.40;99.90
33207;DHT22;19565;46.602;11.534;2022-08-19T08:24:11;21.50;99.90
33207;DHT22;19565;46.602;11.534;2022-08-19T08:26:41;21.50;99.90
33207;DHT22;19565;46.602;11.534;2022-08-19T08:29:17;21.50;99.90
33207;DHT22;19565;46.602;11.534;2022-08-19T08:31:47;21.60;99.90
33207;DHT22;19565;46.602;11.534;2022-08-19T08:34:27;21.60;99.90
33207;DHT22;19565;46.602;11.534;2022-08-19T08:36:55;21.60;99.90
33207;DHT22;19565;46.602;11.534;2022-08-19T08:39:23;21.70;99.90
33207;DHT22;19565;46.602;11.534;2022-08-19T08:41:54;21.70;99.90
33207;DHT22;19565;46.602;11.534;2022-08-19T08:44:34;21.70;99.90
33207;DHT22;19565;46.602;11.534;2022-08-19T08:47:14;21.70;99.90
33207;DHT22;19565;46.602;11.534;2022-08-19T08:49:49;21.80;99.90
33207;DHT22;19565;46.602;11.534;2022-08-19T08:52:22;21.90;99.90
33207;DHT22;19565;46.602;11.534;2022-08-19T08:55:00;21.90;99.90
33207;DHT22;19565;46.602;11.534;2022-08-19T08:57:39;22.00;99.20
33207;DHT22;19565;46.602;11.534;2022-08-19T09:00:11;22.10;98.50
33207;DHT22;19565;46.602;11.534;2022-08-19T09:02:43;22.10;97.60
33207;DHT22;19565;46.602;11.534;2022-08-19T09:05:18;22.20;96.50
33207;DHT22;19565;46.602;11.534;2022-08-19T09:07:58;22.30;96.50
33207;DHT22;19565;46.602;11.534;2022-08-19T09:10:34;22.30;95.90
33207;DHT22;19565;46.602;11.534;2022-08-19T09:13:17;22.40;95.60
33207;DHT22;19565;46.602;11.534;2022-08-19T09:15:49;22.50;96.10
33207;DHT22;19565;46.602;11.534;2022-08-19T09:18:19;22.60;96.20
33207;DHT22;19565;46.602;11.534;2022-08-19T09:20:49;22.60;96.50
33207;DHT22;19565;46.602;11.534;2022-08-19T09:23:17;22.80;96.50
33207;DHT22;19565;46.602;11.534;2022-08-19T09:25:53;22.80;94.80
33207;DHT22;19565;46.602;11.534;2022-08-19T09:28:21;22.90;95.20
33207;DHT22;19565;46.602;11.534;2022-08-19T09:30:53;22.90;95.70
33207;DHT22;19565;46.602;11.534;2022-08-19T09:33:21;22.90;95.70
33207;DHT22;19565;46.602;11.534;2022-08-19T09:36:02;22.90;95.60
33207;DHT22;19565;46.602;11.534;2022-08-19T09:38:35;22.90;95.70
33207;DHT22;19565;46.602;11.534;2022-08-19T09:41:11;23.00;96.10
33207;DHT22;19565;46.602;11.534;2022-08-19T09:43:41;22.90;95.30
33207;DHT22;19565;46.602;11.534;2022-08-19T09:46:14;23.00;95.30
33207;DHT22;19565;46.602;11.534;2022-08-19T09:48:44;23.00;95.20
33207;DHT22;19565;46.602;11.534;2022-08-19T09:51:18;23.10;95.30
33207;DHT22;19565;46.602;11.534;2022-08-19T09:53:49;23.10;95.10
33207;DHT22;19565;46.602;11.534;2022-08-19T09:56:21;23.20;95.00
33207;DHT22;19565;46.602;11.534;2022-08-19T09:58:50;23.20;94.50
33207;DHT22;19565;46.602;11.534;2022-08-19T10:01:20;23.20;94.40
33207;DHT22;19565;46.602;11.534;2022-08-19T10:03:52;23.30;94.50
33207;DHT22;19565;46.602;11.534;2022-08-19T10:06:23;23.40;94.60
33207;DHT22;19565;46.602;11.534;2022-08-19T10:09:13;23.50;94.40
33207;DHT22;19565;46.602;11.534;2022-08-19T10:11:43;23.60;94.40
33207;DHT22;19565;46.602;11.534;2022-08-19T10:14:20;23.50;93.90
33207;DHT22;19565;46.602;11.534;2022-08-19T10:16:50;23.50;94.00
33207;DHT22;19565;46.602;11.534;2022-08-19T10:19:19;23.40;93.50
33207;DHT22;19565;46.602;11.534;2022-08-19T10:21:53;23.30;93.60
33207;DHT22;19565;46.602;11.534;2022-08-19T10:24:26;23.30;94.20
33207;DHT22;19565;46.602;11.534;2022-08-19T10:26:55;23.30;93.80
33207;DHT22;19565;46.602;11.534;2022-08-19T10:29:26;23.40;93.60
33207;DHT22;19565;46.602;11.534;2022-08-19T10:31:59;23.50;93.50
33207;DHT22;19565;46.602;11.534;2022-08-19T10:34:30;23.60;93.50
33207;DHT22;19565;46.602;11.534;2022-08-19T10:37:00;23.70;92.60
33207;DHT22;19565;46.602;11.534;2022-08-19T10:39:36;23.70;92.70
33207;DHT22;19565;46.602;11.534;2022-08-19T10:42:09;23.70;92.50
33207;DHT22;19565;46.602;11.534;2022-08-19T10:44:40;23.80;92.60
33207;DHT22;19565;46.602;11.534;2022-08-19T10:47:09;23.90;92.70
33207;DHT22;19565;46.602;11.534;2022-08-19T10:49:51;23.90;92.90
33207;DHT22;19565;46.602;11.534;2022-08-19T10:52:39;24.00;91.90
33207;DHT22;19565;46.602;11.534;2022-08-19T10:55:18;24.00;92.10
33207;DHT22;19565;46.602;11.534;2022-08-19T10:58:08;24.00;91.70
33207;DHT22;19565;46.602;11.534;2022-08-19T11:00:37;24.10;91.00
33207;DHT22;19565;46.602;11.534;2022-08-19T11:03:05;24.10;90.50
33207;DHT22;19565;46.602;11.534;2022-08-19T11:05:35;24.20;90.40
33207;DHT22;19565;46.602;11.534;2022-08-19T11:08:08;24.20;90.20
33207;DHT22;19565;46.602;11.534;2022-08-19T11:10:50;24.30;90.00
33207;DHT22;19565;46.602;11.534;2022-08-19T11:13:20;24.30;89.00
33207;DHT22;19565;46.602;11.534;2022-08-19T11:15:56;24.20;89.60
33207;DHT22;19565;46.602;11.534;2022-08-19T11:18:30;24.20;88.60
33207;DHT22;19565;46.602;11.534;2022-08-19T11:21:06;24.10;89.10
33207;DHT22;19565;46.602;11.534;2022-08-19T11:23:36;24.10;90.40
33207;DHT22;19565;46.602;11.534;2022-08-19T11:26:04;24.10;90.80
33207;DHT22;19565;46.602;11.534;2022-08-19T11:28:33;24.00;90.70
33207;DHT22;19565;46.602;11.534;2022-08-19T11:31:01;24.00;91.10
33207;DHT22;19565;46.602;11.534;2022-08-19T11:33:30;23.90;90.70
33207;DHT22;19565;46.602;11.534;2022-08-19T11:35:59;23.90;91.00
33207;DHT22;19565;46.602;11.534;2022-08-19T11:38:28;23.90;90.90
33207;DHT22;19565;46.602;11.534;2022-08-19T11:41:00;23.90;90.80
33207;DHT22;19565;46.602;11.534;2022-08-19T11:43:30;23.90;90.90
33207;DHT22;19565;46.602;11.534;2022-08-19T11:46:04;23.90;91.00
33207;DHT22;19565;46.602;11.534;2022-08-19T11:48:35;23.90;91.60
33207;DHT22;19565;46.602;11.534;2022-08-19T11:51:05;24.00;91.50
33207;DHT22;19565;46.602;11.534;2022-08-19T11:53:33;24.00;91.70
33207;DHT22;19565;46.602;11.534;2022-08-19T11:56:04;24.00;92.00
33207;DHT22;19565;46.602;11.534;2022-08-19T11:58:33;24.00;92.40
33207;DHT22;19565;46.602;11.534;2022-08-19T12:01:05;24.10;92.90
33207;DHT22;19565;46.602;11.534;2022-08-19T12:03:35;24.10;93.90
33207;DHT22;19565;46.602;11.534;2022-08-19T12:06:04;24.00;94.80
33207;DHT22;19565;46.602;11.534;2022-08-19T12:08:32;24.00;96.20
33207;DHT22;19565;46.602;11.534;2022-08-19T12:11:01;24.00;95.70
33207;DHT22;19565;46.602;11.534;2022-08-19T12:13:31;23.90;94.90
33207;DHT22;19565;46.602;11.534;2022-08-19T12:15:59;24.00;94.10
33207;DHT22;19565;46.602;11.534;2022-08-19T12:18:28;24.10;93.90
33207;DHT22;19565;46.602;11.534;2022-08-19T12:20:56;24.20;93.70
33207;DHT22;19565;46.602;11.534;2022-08-19T12:23:27;24.30;93.30
33207;DHT22;19565;46.602;11.534;2022-08-19T12:25:55;24.40;92.70
33207;DHT22;19565;46.602;11.534;2022-08-19T12:28:26;24.50;91.90
33207;DHT22;19565;46.602;11.534;2022-08-19T12:30:56;24.50;91.40
33207;DHT22;19565;46.602;11.534;2022-08-19T12:33:24;24.60;91.30
33207;DHT22;19565;46.602;11.534;2022-08-19T12:35:55;24.70;91.20
33207;DHT22;19565;46.602;11.534;2022-08-19T12:38:29;24.80;91.00
33207;DHT22;19565;46.602;11.534;2022-08-19T12:40:58;24.80;90.40
33207;DHT22;19565;46.602;11.534;2022-08-19T12:43:27;24.80;90.20
33207;DHT22;19565;46.602;11.534;2022-08-19T12:45:58;24.90;89.00
33207;DHT22;19565;46.602;11.534;2022-08-19T12:48:26;24.90;88.60
33207;DHT22;19565;46.602;11.534;2022-08-19T12:51:00;25.00;84.00
33207;DHT22;19565;46.602;11.534;2022-08-19T12:53:29;25.00;77.90
33207;DHT22;19565;46.602;11.534;2022-08-19T12:55:58;25.00;76.40
33207;DHT22;19565;46.602;11.534;2022-08-19T12:58:27;25.10;75.30
33207;DHT22;19565;46.602;11.534;2022-08-19T13:00:57;25.20;76.40
33207;DHT22;19565;46.602;11.534;2022-08-19T13:03:25;25.20;77.10
33207;DHT22;19565;46.602;11.534;2022-08-19T13:05:56;25.20;77.60
33207;DHT22;19565;46.602;11.534;2022-08-19T13:08:24;25.30;77.90
33207;DHT22;19565;46.602;11.534;2022-08-19T13:10:52;25.30;78.00
33207;DHT22;19565;46.602;11.534;2022-08-19T13:13:21;25.40;79.00
33207;DHT22;19565;46.602;11.534;2022-08-19T13:15:49;25.40;79.00
33207;DHT22;19565;46.602;11.534;2022-08-19T13:18:19;25.50;79.00
33207;DHT22;19565;46.602;11.534;2022-08-19T13:20:48;25.50;78.60
33207;DHT22;19565;46.602;11.534;2022-08-19T13:23:18;25.60;79.80
33207;DHT22;19565;46.602;11.534;2022-08-19T13:25:55;25.60;79.60
33207;DHT22;19565;46.602;11.534;2022-08-19T13:28:24;25.70;78.50
33207;DHT22;19565;46.602;11.534;2022-08-19T13:30:55;25.70;78.90
33207;DHT22;19565;46.602;11.534;2022-08-19T13:33:42;25.60;79.60
33207;DHT22;19565;46.602;11.534;2022-08-19T13:36:12;25.60;80.90
33207;DHT22;19565;46.602;11.534;2022-08-19T13:38:40;25.70;80.70
33207;DHT22;19565;46.602;11.534;2022-08-19T13:41:08;25.70;80.40
33207;DHT22;19565;46.602;11.534;2022-08-19T13:43:40;25.80;80.20
33207;DHT22;19565;46.602;11.534;2022-08-19T13:46:10;25.70;79.10
33207;DHT22;19565;46.602;11.534;2022-08-19T13:48:42;25.70;80.40
33207;DHT22;19565;46.602;11.534;2022-08-19T13:51:10;25.80;77.10
33207;DHT22;19565;46.602;11.534;2022-08-19T13:53:39;25.80;76.10
33207;DHT22;19565;46.602;11.534;2022-08-19T13:56:15;25.80;77.00
33207;DHT22;19565;46.602;11.534;2022-08-19T13:58:43;25.80;77.60
33207;DHT22;19565;46.602;11.534;2022-08-19T14:01:11;25.80;77.00
33207;DHT22;19565;46.602;11.534;2022-08-19T14:03:40;25.90;77.00
33207;DHT22;19565;46.602;11.534;2022-08-19T14:06:09;26.00;77.70
33207;DHT22;19565;46.602;11.534;2022-08-19T14:08:38;26.10;78.40
33207;DHT22;19565;46.602;11.534;2022-08-19T14:11:12;26.10;78.50
33207;DHT22;19565;46.602;11.534;2022-08-19T14:13:40;26.20;78.50
33207;DHT22;19565;46.602;11.534;2022-08-19T14:16:10;26.20;78.30
33207;DHT22;19565;46.602;11.534;2022-08-19T14:18:39;26.20;78.50
33207;DHT22;19565;46.602;11.534;2022-08-19T14:21:13;26.30;77.50
33207;DHT22;19565;46.602;11.534;2022-08-19T14:23:42;26.40;78.30
33207;DHT22;19565;46.602;11.534;2022-08-19T14:26:13;26.40;77.60
33207;DHT22;19565;46.602;11.534;2022-08-19T14:28:42;26.40;78.80
33207;DHT22;19565;46.602;11.534;2022-08-19T14:31:11;26.50;78.40
33207;DHT22;19565;46.602;11.534;2022-08-19T14:33:40;26.60;79.10
33207;DHT22;19565;46.602;11.534;2022-08-19T14:36:10;26.70;77.80
33207;DHT22;19565;46.602;11.534;2022-08-19T14:38:38;26.60;78.40
33207;DHT22;19565;46.602;11.534;2022-08-19T14:41:09;26.50;78.40
33207;DHT22;19565;46.602;11.534;2022-08-19T14:43:38;26.50;79.40
33207;DHT22;19565;46.602;11.534;2022-08-19T14:46:06;26.40;79.60
33207;DHT22;19565;46.602;11.534;2022-08-19T14:48:37;26.30;80.10
33207;DHT22;19565;46.602;11.534;2022-08-19T14:51:07;26.30;80.50
33207;DHT22;19565;46.602;11.534;2022-08-19T14:53:37;26.30;81.10
33207;DHT22;19565;46.602;11.534;2022-08-19T14:56:08;26.50;81.00
33207;DHT22;19565;46.602;11.534;2022-08-19T14:58:37;27.00;79.60
33207;DHT22;19565;46.602;11.534;2022-08-19T15:01:07;27.30;78.10
33207;DHT22;19565;46.602;11.534;2022-08-19T15:03:36;27.50;77.60
33207;DHT22;19565;46.602;11.534;2022-08-19T15:06:05;27.50;76.90
33207;DHT22;19565;46.602;11.534;2022-08-19T15:08:35;27.30;77.40
33207;DHT22;19565;46.602;11.534;2022-08-19T15:11:09;27.00;77.90
33207;DHT22;19565;46.602;11.534;2022-08-19T15:13:38;26.70;78.50
33207;DHT22;19565;46.602;11.534;2022-08-19T15:16:07;26.50;79.20
33207;DHT22;19565;46.602;11.534;2022-08-19T15:18:45;26.40;80.40
33207;DHT22;19565;46.602;11.534;2022-08-19T15:21:14;26.20;81.30
33207;DHT22;19565;46.602;11.534;2022-08-19T15:23:53;26.10;81.70
33207;DHT22;19565;46.602;11.534;2022-08-19T15:26:24;26.10;81.90
33207;DHT22;19565;46.602;11.534;2022-08-19T15:28:53;26.00;82.50
33207;DHT22;19565;46.602;11.534;2022-08-19T15:31:21;26.00;83.20
33207;DHT22;19565;46.602;11.534;2022-08-19T15:33:55;26.00;83.70
33207;DHT22;19565;46.602;11.534;2022-08-19T15:36:25;25.90;84.60
33207;DHT22;19565;46.602;11.534;2022-08-19T15:38:53;25.90;85.10
33207;DHT22;19565;46.602;11.534;2022-08-19T15:41:25;25.90;85.00